createdAt,value
2023-05-23T00:00:48.126Z,6.70
2023-05-23T00:03:25.537Z,9.50
2023-05-23T00:05:53.744Z,6.30
2023-05-23T00:08:22.028Z,9.20
2023-05-23T00:10:50.403Z,8.30
2023-05-23T00:13:18.820Z,8.00
2023-05-23T00:15:48.752Z,10.80
2023-05-23T00:18:17.092Z,13.20
2023-05-23T00:20:45.711Z,14.20
2023-05-23T00:23:19.225Z,12.90
2023-05-23T00:25:53.431Z,19.40
2023-05-23T00:28:22.868Z,15.00
2023-05-23T00:30:51.205Z,16.10
2023-05-23T00:33:22.347Z,15.60
2023-05-23T00:35:50.933Z,12.50
2023-05-23T00:38:19.527Z,13.40
2023-05-23T00:40:48.434Z,10.70
2023-05-23T00:43:16.640Z,9.60
2023-05-23T00:45:44.837Z,10.40
2023-05-23T00:48:13.114Z,13.20
2023-05-23T00:50:41.827Z,9.00
2023-05-23T00:53:10.225Z,6.90
2023-05-23T00:55:39.800Z,7.90
2023-05-23T00:58:08.548Z,6.60
2023-05-23T01:00:38.738Z,7.30
2023-05-23T01:03:07.269Z,7.40
2023-05-23T01:05:35.939Z,8.30
2023-05-23T01:08:04.066Z,7.40
2023-05-23T01:10:32.438Z,8.70
2023-05-23T01:13:19.137Z,5.70
2023-05-23T01:16:01.909Z,5.80
2023-05-23T01:18:38.509Z,4.50
2023-05-23T01:21:18.207Z,5.60
2023-05-23T01:24:29.554Z,7.30
2023-05-23T01:27:16.029Z,5.80
2023-05-23T01:29:49.996Z,6.30
2023-05-23T01:32:20.059Z,7.70
2023-05-23T01:34:49.258Z,5.20
2023-05-23T01:37:19.818Z,7.60
2023-05-23T01:39:48.265Z,7.40
2023-05-23T01:42:16.741Z,6.30
2023-05-23T01:44:46.367Z,6.70
2023-05-23T01:47:15.785Z,5.40
2023-05-23T01:49:45.330Z,8.90
2023-05-23T01:52:15.707Z,7.10
2023-05-23T01:54:45.192Z,7.80
2023-05-23T01:57:14.222Z,9.10
2023-05-23T01:59:43.775Z,6.10
2023-05-23T02:02:12.360Z,6.70
2023-05-23T02:04:40.758Z,10.50
2023-05-23T02:07:09.019Z,7.40
2023-05-23T02:09:37.241Z,8.00
2023-05-23T02:12:05.597Z,7.50
2023-05-23T02:14:33.799Z,7.90
2023-05-23T02:17:02.208Z,6.70
2023-05-23T02:19:31.205Z,6.70
2023-05-23T02:21:59.560Z,6.40
2023-05-23T02:24:27.886Z,7.20
2023-05-23T02:26:56.113Z,5.00
2023-05-23T02:29:24.236Z,8.90
2023-05-23T02:31:52.550Z,8.40
2023-05-23T02:34:20.747Z,10.60
2023-05-23T02:36:48.917Z,6.50
2023-05-23T02:39:17.439Z,5.80
2023-05-23T02:41:46.784Z,7.20
2023-05-23T02:44:15.201Z,5.40
2023-05-23T02:46:43.581Z,8.80
2023-05-23T02:49:11.922Z,8.00
2023-05-23T02:51:40.184Z,9.50
2023-05-23T02:54:08.581Z,7.70
2023-05-23T02:56:38.605Z,6.50
2023-05-23T02:59:07.679Z,8.00
2023-05-23T03:01:36.524Z,8.40
2023-05-23T03:04:04.908Z,8.70
2023-05-23T03:06:34.426Z,7.70
2023-05-23T03:09:03.720Z,8.00
2023-05-23T03:11:31.892Z,7.60
2023-05-23T03:14:00.945Z,6.50
2023-05-23T03:16:29.236Z,7.50
2023-05-23T03:18:57.640Z,5.70
2023-05-23T03:21:25.910Z,10.60
2023-05-23T03:23:54.289Z,8.30
2023-05-23T03:26:22.961Z,11.80
2023-05-23T03:28:52.234Z,8.80
2023-05-23T03:31:21.043Z,6.10
2023-05-23T03:33:49.422Z,7.80
2023-05-23T03:36:18.567Z,9.60
2023-05-23T03:38:46.893Z,8.20
2023-05-23T03:41:16.094Z,10.50
2023-05-23T03:43:45.573Z,9.30
2023-05-23T03:46:13.921Z,7.10
2023-05-23T03:48:42.833Z,6.30
2023-05-23T03:51:13.574Z,6.10
2023-05-23T03:53:42.382Z,6.80
2023-05-23T03:56:11.195Z,7.60
2023-05-23T03:58:39.441Z,10.30
2023-05-23T04:01:11.074Z,8.00
2023-05-23T04:03:40.211Z,9.10
2023-05-23T04:06:10.220Z,9.10
2023-05-23T04:08:42.237Z,7.50
2023-05-23T04:11:10.848Z,7.10
2023-05-23T04:13:42.883Z,7.50
2023-05-23T04:16:12.562Z,7.30
2023-05-23T04:18:40.783Z,7.20
2023-05-23T04:21:09.786Z,13.50
2023-05-23T04:23:45.185Z,7.50
2023-05-23T04:26:13.545Z,8.70
2023-05-23T04:28:54.388Z,7.00
2023-05-23T04:31:22.948Z,9.50
2023-05-23T04:33:51.894Z,7.20
2023-05-23T04:36:23.707Z,6.40
2023-05-23T04:38:54.239Z,10.20
2023-05-23T04:41:23.920Z,6.70
2023-05-23T04:44:30.481Z,8.50
2023-05-23T04:47:11.855Z,5.40
2023-05-23T04:49:57.745Z,7.80
2023-05-23T04:52:27.663Z,8.80
2023-05-23T04:54:56.437Z,6.10
2023-05-23T04:57:24.774Z,11.10
2023-05-23T04:59:52.996Z,5.20
2023-05-23T05:02:21.144Z,8.10
2023-05-23T05:04:49.325Z,7.70
2023-05-23T05:07:18.151Z,5.70
2023-05-23T05:09:46.392Z,8.30
2023-05-23T05:12:14.614Z,12.80
2023-05-23T05:14:42.921Z,8.80
2023-05-23T05:17:11.827Z,6.50
2023-05-23T05:19:53.662Z,8.40
2023-05-23T05:22:34.054Z,8.00
2023-05-23T05:25:15.082Z,9.80
2023-05-23T05:27:43.996Z,8.00
2023-05-23T05:30:15.128Z,6.80
2023-05-23T05:33:03.076Z,11.30
2023-05-23T05:35:33.609Z,11.20
2023-05-23T05:38:04.887Z,11.80
2023-05-23T05:40:33.469Z,9.20
2023-05-23T05:43:02.218Z,8.80
2023-05-23T05:45:30.426Z,8.50
2023-05-23T05:47:59.114Z,8.40
2023-05-23T05:50:28.375Z,11.70
2023-05-23T05:52:56.580Z,7.10
2023-05-23T05:55:25.936Z,12.30
2023-05-23T05:57:56.683Z,8.70
2023-05-23T06:00:27.618Z,12.80
2023-05-23T06:03:00.265Z,9.60
2023-05-23T06:05:37.699Z,10.70
2023-05-23T06:08:06.391Z,8.20
2023-05-23T06:10:34.720Z,10.20
2023-05-23T06:13:03.612Z,9.60
2023-05-23T06:15:32.067Z,9.00
2023-05-23T06:18:06.682Z,11.90
2023-05-23T06:20:34.937Z,11.00
2023-05-23T06:23:05.778Z,10.10
2023-05-23T06:25:33.991Z,6.90
2023-05-23T06:28:02.210Z,7.50
2023-05-23T06:30:31.872Z,14.90
2023-05-23T06:33:00.198Z,12.40
2023-05-23T06:35:28.422Z,7.50
2023-05-23T06:37:56.555Z,7.90
2023-05-23T06:40:24.861Z,12.10
2023-05-23T06:42:53.337Z,11.40
2023-05-23T06:45:42.110Z,11.80
2023-05-23T06:48:14.658Z,12.30
2023-05-23T06:50:43.311Z,11.20
2023-05-23T06:53:12.800Z,8.60
2023-05-23T06:55:42.170Z,14.40
2023-05-23T06:58:12.419Z,12.10
2023-05-23T07:00:41.615Z,12.10
2023-05-23T07:03:15.106Z,12.80
2023-05-23T07:05:44.452Z,16.10
2023-05-23T07:08:13.228Z,18.90
2023-05-23T07:10:44.249Z,21.80
2023-05-23T07:13:31.153Z,15.80
2023-05-23T07:16:00.538Z,13.80
2023-05-23T07:18:28.932Z,20.00
2023-05-23T07:20:58.158Z,14.50
2023-05-23T07:23:26.894Z,24.30
2023-05-23T07:26:02.474Z,17.30
2023-05-23T07:28:42.894Z,20.40
2023-05-23T07:31:12.194Z,24.10
2023-05-23T07:33:40.393Z,22.80
2023-05-23T07:36:09.444Z,21.20
2023-05-23T07:38:37.615Z,20.10
2023-05-23T07:41:11.374Z,21.60
2023-05-23T07:43:40.908Z,17.20
2023-05-23T07:46:09.565Z,17.10
2023-05-23T07:48:38.214Z,18.80
2023-05-23T07:51:06.427Z,18.10
2023-05-23T07:53:35.220Z,15.00
2023-05-23T07:56:04.850Z,20.70
2023-05-23T07:58:37.201Z,16.30
2023-05-23T08:01:05.636Z,16.90
2023-05-23T08:03:57.615Z,17.00
2023-05-23T08:06:35.053Z,12.90
2023-05-23T08:25:10.823Z,14.90
2023-05-23T08:27:41.243Z,16.80
2023-05-23T08:30:23.329Z,11.60
2023-05-23T08:32:53.420Z,14.50
2023-05-23T08:35:22.998Z,10.10
2023-05-23T08:37:52.747Z,11.10
2023-05-23T08:40:23.193Z,9.80
2023-05-23T08:42:59.364Z,10.60
2023-05-23T08:45:30.548Z,11.60
2023-05-23T08:48:01.336Z,8.60
2023-05-23T08:50:31.121Z,9.70
2023-05-23T08:52:59.867Z,14.10
2023-05-23T08:55:30.359Z,12.20
2023-05-23T08:58:00.761Z,14.20
2023-05-23T09:03:13.142Z,7.40
2023-05-23T09:06:11.098Z,10.50
2023-05-23T09:08:39.902Z,9.20
2023-05-23T09:11:13.039Z,7.30
2023-05-23T09:13:41.938Z,10.60
2023-05-23T09:16:12.861Z,5.40
2023-05-23T09:18:57.268Z,9.10
2023-05-23T09:21:26.118Z,5.90
2023-05-23T09:24:06.121Z,6.20
2023-05-23T09:26:35.307Z,10.70
2023-05-23T09:29:07.929Z,7.80
2023-05-23T09:31:37.054Z,3.80
2023-05-23T09:34:06.974Z,6.40
2023-05-23T09:36:35.406Z,9.40
2023-05-23T09:39:05.779Z,5.80
2023-05-23T09:41:35.547Z,4.50
2023-05-23T09:44:09.486Z,6.90
2023-05-23T09:46:41.317Z,3.90
2023-05-23T09:49:18.358Z,5.70
2023-05-23T09:51:59.023Z,4.50
2023-05-23T09:54:27.241Z,7.90
2023-05-23T09:57:01.597Z,5.90
2023-05-23T09:59:32.421Z,6.80
2023-05-23T10:02:04.120Z,8.40
2023-05-23T10:04:35.562Z,5.00
2023-05-23T10:07:24.572Z,4.50
2023-05-23T10:09:58.223Z,8.50
2023-05-23T10:12:36.337Z,7.70
2023-05-23T10:15:06.028Z,6.70
2023-05-23T10:17:47.074Z,7.50
2023-05-23T10:20:17.012Z,6.80
2023-05-23T10:22:45.912Z,5.80
2023-05-23T10:25:15.374Z,4.40
2023-05-23T10:27:44.348Z,4.00
2023-05-23T10:30:13.505Z,5.20
2023-05-23T10:32:43.207Z,4.60
2023-05-23T10:35:24.864Z,7.00
2023-05-23T10:38:02.098Z,7.30
2023-05-23T10:40:42.714Z,4.80
2023-05-23T10:43:20.907Z,8.40
2023-05-23T10:45:50.961Z,4.40
2023-05-23T10:48:40.877Z,6.00
2023-05-23T10:51:10.982Z,6.60
2023-05-23T10:53:44.113Z,5.30
2023-05-23T10:56:22.514Z,5.90
2023-05-23T10:58:56.132Z,6.50
2023-05-23T11:01:25.552Z,6.20
2023-05-23T11:03:56.036Z,4.10
2023-05-23T11:06:35.516Z,4.90
2023-05-23T11:09:10.028Z,11.50
2023-05-23T11:12:05.598Z,6.90
2023-05-23T11:14:33.954Z,8.00
2023-05-23T11:17:17.867Z,4.80
2023-05-23T11:20:06.739Z,7.80
2023-05-23T11:22:36.072Z,4.60
2023-05-23T11:25:10.244Z,6.30
2023-05-23T11:27:41.564Z,5.50
2023-05-23T11:30:10.128Z,6.00
2023-05-23T11:32:38.503Z,5.00
2023-05-23T11:35:11.708Z,6.60
2023-05-23T11:37:40.444Z,7.70
2023-05-23T11:40:38.324Z,8.30
2023-05-23T11:43:09.000Z,7.50
2023-05-23T11:45:38.638Z,4.10
2023-05-23T11:48:10.417Z,4.80
2023-05-23T11:53:14.556Z,7.10
2023-05-23T11:55:48.970Z,6.30
2023-05-23T11:58:17.770Z,8.40
2023-05-23T12:00:46.510Z,5.80
2023-05-23T12:03:14.893Z,7.70
2023-05-23T12:05:45.617Z,6.50
2023-05-23T12:08:16.990Z,7.50
2023-05-23T12:10:59.157Z,5.90
2023-05-23T12:13:30.935Z,6.10
2023-05-23T12:16:03.096Z,6.40
2023-05-23T12:18:32.988Z,5.40
2023-05-23T12:21:03.447Z,5.70
2023-05-23T12:23:34.706Z,5.20
2023-05-23T12:26:07.748Z,5.10
2023-05-23T12:28:39.061Z,4.50
2023-05-23T12:31:23.835Z,4.50
2023-05-23T12:33:53.225Z,6.00
2023-05-23T12:36:26.240Z,5.70
2023-05-23T12:39:03.065Z,5.40
2023-05-23T12:41:33.213Z,6.60
2023-05-23T12:44:02.726Z,7.50
2023-05-23T12:46:30.887Z,8.80
2023-05-23T12:48:59.779Z,5.80
2023-05-23T12:51:28.035Z,6.10
2023-05-23T12:53:57.301Z,6.20
2023-05-23T12:56:26.790Z,7.30
2023-05-23T12:58:55.074Z,5.60
2023-05-23T13:01:23.467Z,6.30
2023-05-23T13:03:51.801Z,6.00
2023-05-23T13:06:19.953Z,6.50
2023-05-23T13:08:50.489Z,5.60
2023-05-23T13:11:18.738Z,7.50
2023-05-23T13:13:47.032Z,5.20
2023-05-23T13:16:16.602Z,7.80
2023-05-23T13:18:45.070Z,3.80
2023-05-23T13:21:13.375Z,6.20
2023-05-23T13:23:41.773Z,5.10
2023-05-23T13:26:10.441Z,6.10
2023-05-23T13:28:38.680Z,5.60
2023-05-23T13:31:06.830Z,4.80
2023-05-23T13:33:35.625Z,6.50
2023-05-23T13:36:05.301Z,7.40
2023-05-23T13:38:33.487Z,5.90
2023-05-23T13:41:01.786Z,6.70
2023-05-23T13:43:29.899Z,10.40
2023-05-23T13:45:58.113Z,6.10
2023-05-23T13:48:26.243Z,5.10
2023-05-23T13:50:56.458Z,8.00
2023-05-23T13:53:24.765Z,6.70
2023-05-23T13:55:53.338Z,6.00
2023-05-23T13:58:21.703Z,6.10
2023-05-23T14:00:49.773Z,6.10
2023-05-23T14:03:19.593Z,7.20
2023-05-23T14:05:47.887Z,6.90
2023-05-23T14:08:16.407Z,6.90
2023-05-23T14:10:44.798Z,6.90
2023-05-23T14:13:12.943Z,5.20
2023-05-23T14:15:45.214Z,6.10
2023-05-23T14:18:13.653Z,7.80
2023-05-23T14:20:41.796Z,9.20
2023-05-23T14:23:10.111Z,6.20
2023-05-23T14:25:38.308Z,6.10
2023-05-23T14:28:06.674Z,7.90
2023-05-23T14:30:35.014Z,9.00
2023-05-23T14:33:03.308Z,6.90
2023-05-23T14:35:31.635Z,5.70
2023-05-23T14:37:59.932Z,8.80
2023-05-23T14:40:28.628Z,5.20
2023-05-23T14:42:56.903Z,4.60
2023-05-23T14:45:25.135Z,5.20
2023-05-23T14:47:53.299Z,9.30
2023-05-23T14:50:21.569Z,5.30
2023-05-23T14:52:49.678Z,7.20
2023-05-23T14:55:18.048Z,5.50
2023-05-23T14:57:46.219Z,4.80
2023-05-23T15:00:14.918Z,5.30
2023-05-23T15:02:43.243Z,7.40
2023-05-23T15:05:11.694Z,6.80
2023-05-23T15:07:40.507Z,7.70
2023-05-23T15:10:08.953Z,8.20
2023-05-23T15:12:37.198Z,4.80
2023-05-23T15:15:05.767Z,7.50
2023-05-23T15:17:34.605Z,7.00
2023-05-23T15:20:06.059Z,5.10
2023-05-23T15:22:39.692Z,6.80
2023-05-23T15:25:09.553Z,7.30
2023-05-23T15:27:38.296Z,6.70
2023-05-23T15:30:07.214Z,11.70
2023-05-23T15:32:35.540Z,6.90
2023-05-23T15:35:04.539Z,9.80
2023-05-23T15:37:32.666Z,7.30
2023-05-23T15:40:01.279Z,5.40
2023-05-23T15:42:29.682Z,7.30
2023-05-23T15:44:57.948Z,11.40
2023-05-23T15:47:26.204Z,6.70
2023-05-23T15:49:54.443Z,6.40
2023-05-23T15:52:22.650Z,4.90
2023-05-23T15:54:50.891Z,6.20
2023-05-23T15:57:19.045Z,8.20
2023-05-23T15:59:47.164Z,5.90
2023-05-23T16:02:16.483Z,9.50
2023-05-23T16:04:44.930Z,9.20
2023-05-23T16:07:13.228Z,5.00
2023-05-23T16:09:41.568Z,7.80
2023-05-23T16:12:10.061Z,6.70
2023-05-23T16:14:38.349Z,6.80
2023-05-23T16:17:07.778Z,6.30
2023-05-23T16:19:35.996Z,10.20
2023-05-23T16:22:04.706Z,8.50
2023-05-23T16:24:33.332Z,7.80
2023-05-23T16:27:02.398Z,4.80
2023-05-23T16:29:30.575Z,5.40
2023-05-23T16:31:58.755Z,5.40
2023-05-23T16:34:27.176Z,5.20
2023-05-23T16:36:55.791Z,4.60
2023-05-23T16:39:23.937Z,7.60
2023-05-23T16:41:52.293Z,6.00
2023-05-23T16:44:20.978Z,4.70
2023-05-23T16:46:49.626Z,4.30
2023-05-23T16:49:18.340Z,10.60
2023-05-23T16:51:48.713Z,4.10
2023-05-23T16:54:17.562Z,6.10
2023-05-23T16:56:46.299Z,6.00
2023-05-23T16:59:14.518Z,4.60
2023-05-23T17:01:42.722Z,3.80
2023-05-23T17:04:11.303Z,3.80
2023-05-23T17:06:39.787Z,5.40
2023-05-23T17:09:08.509Z,6.90
2023-05-23T17:11:37.008Z,4.80
2023-05-23T17:14:05.258Z,5.00
2023-05-23T17:16:34.431Z,5.10
2023-05-23T17:19:03.623Z,4.90
2023-05-23T17:21:32.989Z,7.30
2023-05-23T17:24:02.252Z,6.50
2023-05-23T17:26:31.380Z,5.30
2023-05-23T17:29:00.182Z,4.80
2023-05-23T17:31:30.606Z,4.80
2023-05-23T17:33:59.441Z,5.90
2023-05-23T17:36:28.207Z,5.80
2023-05-23T17:38:56.894Z,5.20
2023-05-23T17:41:25.389Z,5.20
2023-05-23T17:43:53.954Z,4.10
2023-05-23T17:46:22.498Z,6.40
2023-05-23T17:48:51.705Z,5.60
2023-05-23T17:51:20.304Z,6.90
2023-05-23T17:53:53.857Z,6.20
2023-05-23T17:56:25.001Z,5.00
2023-05-23T17:58:53.594Z,5.50
2023-05-23T18:01:22.131Z,5.80
2023-05-23T18:03:50.605Z,5.50
2023-05-23T18:06:19.152Z,5.50
2023-05-23T18:08:48.104Z,5.80
2023-05-23T18:11:16.617Z,5.80
2023-05-23T18:13:45.270Z,5.00
2023-05-23T18:16:13.618Z,5.30
2023-05-23T18:18:44.031Z,5.00
2023-05-23T18:21:12.718Z,7.00
2023-05-23T18:23:42.221Z,7.20
2023-05-23T18:26:10.900Z,9.00
2023-05-23T18:28:39.393Z,11.20
2023-05-23T18:31:07.941Z,7.40
2023-05-23T18:33:36.813Z,8.30
2023-05-23T18:36:06.975Z,8.60
2023-05-23T18:38:36.520Z,7.80
2023-05-23T18:41:04.941Z,5.90
2023-05-23T18:43:33.840Z,7.30
2023-05-23T18:46:02.607Z,5.90
2023-05-23T18:48:34.863Z,9.90
2023-05-23T18:51:04.795Z,7.80
2023-05-23T18:53:34.761Z,10.60
2023-05-23T18:56:04.095Z,7.10
2023-05-23T18:58:33.780Z,10.70
2023-05-23T19:01:04.020Z,9.40
2023-05-23T19:03:35.159Z,9.50
2023-05-23T19:06:04.388Z,6.90
2023-05-23T19:08:33.592Z,7.40
2023-05-23T19:11:03.263Z,9.00
2023-05-23T19:13:31.876Z,8.80
2023-05-23T19:16:00.567Z,9.60
2023-05-23T19:18:31.830Z,7.70
2023-05-23T19:21:00.654Z,6.50
2023-05-23T19:23:28.858Z,5.90
2023-05-23T19:25:57.324Z,7.90
2023-05-23T19:28:25.895Z,6.50
2023-05-23T19:30:54.420Z,5.20
2023-05-23T19:33:24.011Z,11.20
2023-05-23T19:35:55.090Z,6.80
2023-05-23T19:38:23.628Z,6.80
2023-05-23T19:40:52.256Z,6.50
2023-05-23T19:43:21.103Z,7.40
2023-05-23T19:45:50.191Z,8.70
2023-05-23T19:48:19.077Z,6.00
2023-05-23T19:50:47.850Z,9.10
2023-05-23T19:53:17.256Z,9.60
2023-05-23T19:55:46.543Z,8.20
2023-05-23T19:58:15.180Z,6.20
2023-05-23T20:00:44.076Z,9.10
2023-05-23T20:03:13.565Z,5.50
2023-05-23T20:05:42.053Z,4.80
2023-05-23T20:08:10.703Z,12.50
2023-05-23T20:10:40.163Z,14.00
2023-05-23T20:13:09.964Z,11.60
2023-05-23T20:15:40.652Z,10.00
2023-05-23T20:18:09.805Z,13.10
2023-05-23T20:20:39.011Z,11.50
2023-05-23T20:23:09.745Z,10.50
2023-05-23T20:25:38.439Z,15.20
2023-05-23T20:28:07.165Z,7.70
2023-05-23T20:30:36.351Z,8.10
2023-05-23T20:33:05.648Z,8.30
2023-05-23T20:35:33.934Z,7.40
2023-05-23T20:38:02.470Z,8.90
2023-05-23T20:40:33.689Z,7.40
2023-05-23T20:43:05.197Z,6.10
2023-05-23T20:45:43.127Z,9.90
2023-05-23T20:51:00.192Z,7.60
2023-05-23T20:53:29.897Z,13.40
2023-05-23T20:55:58.126Z,8.60
2023-05-23T20:58:26.426Z,7.80
2023-05-23T21:00:54.762Z,10.10
2023-05-23T21:03:23.168Z,8.60
2023-05-23T21:05:51.792Z,8.30
2023-05-23T21:08:21.201Z,6.30
2023-05-23T21:10:51.715Z,10.70
2023-05-23T21:13:22.777Z,6.70
2023-05-23T21:15:51.431Z,9.00
2023-05-23T21:18:19.628Z,12.80
2023-05-23T21:20:48.058Z,6.60
2023-05-23T21:23:16.600Z,7.60
2023-05-23T21:25:44.746Z,9.30
2023-05-23T21:28:13.075Z,7.10
2023-05-23T21:30:41.973Z,8.90
2023-05-23T21:33:10.618Z,7.70
2023-05-23T21:35:39.119Z,9.20
2023-05-23T21:38:07.304Z,8.40
2023-05-23T21:40:35.589Z,6.20
2023-05-23T21:43:03.864Z,10.40
2023-05-23T21:45:32.083Z,7.70
2023-05-23T21:48:00.604Z,8.50
2023-05-23T21:50:29.314Z,9.10
2023-05-23T21:52:57.490Z,12.50
2023-05-23T21:55:27.307Z,10.70
2023-05-23T21:57:55.714Z,8.80
2023-05-23T22:00:24.050Z,12.10
2023-05-23T22:02:52.448Z,9.40
2023-05-23T22:05:20.852Z,11.40
2023-05-23T22:07:48.963Z,8.60
2023-05-23T22:10:17.237Z,7.90
2023-05-23T22:12:45.793Z,6.60
2023-05-23T22:15:14.072Z,11.60
2023-05-23T22:17:43.814Z,8.40
2023-05-23T22:20:14.837Z,9.90
2023-05-23T22:22:43.261Z,12.40
2023-05-23T22:25:11.600Z,7.50
2023-05-23T22:27:39.942Z,8.20
2023-05-23T22:30:08.697Z,11.10
2023-05-23T22:32:36.923Z,6.80
2023-05-23T22:35:05.596Z,8.90
2023-05-23T22:37:33.856Z,6.90
2023-05-23T22:40:02.210Z,8.30
2023-05-23T22:42:30.387Z,6.80
2023-05-23T22:44:58.532Z,7.20
2023-05-23T22:47:29.413Z,8.70
2023-05-23T22:49:59.724Z,8.80
2023-05-23T22:52:34.721Z,8.00
2023-05-23T22:55:03.069Z,7.80
2023-05-23T22:57:31.180Z,6.10
2023-05-23T22:59:59.263Z,7.20
2023-05-23T23:02:27.521Z,6.80
2023-05-23T23:04:55.743Z,5.30
2023-05-23T23:07:23.920Z,7.60
2023-05-23T23:09:52.320Z,10.10
2023-05-23T23:12:20.591Z,8.20
2023-05-23T23:14:48.724Z,7.40
2023-05-23T23:17:17.136Z,9.20
2023-05-23T23:19:46.988Z,10.00
2023-05-23T23:22:16.727Z,9.20
2023-05-23T23:24:45.688Z,8.30
2023-05-23T23:27:13.976Z,8.00
2023-05-23T23:29:42.228Z,13.20
2023-05-23T23:32:10.614Z,8.30
2023-05-23T23:34:38.824Z,12.40
2023-05-23T23:37:06.919Z,7.40
2023-05-23T23:39:35.172Z,8.90
2023-05-23T23:42:03.612Z,7.50
2023-05-23T23:44:31.717Z,9.70
2023-05-23T23:47:00.060Z,9.20
2023-05-23T23:49:28.210Z,9.00
2023-05-23T23:51:56.537Z,6.60
2023-05-23T23:54:24.759Z,6.70
2023-05-23T23:56:52.935Z,9.40
2023-05-23T23:59:21.109Z,8.60
